Latest Coastal Weather Observations for Cocos Island

IDW60701

Issued at 3:21 am WST Tuesday 3 May 2016 (issued every 10 minutes, with the page automatically refreshed every 10 minutes)

About coastal observations | Map of coastal stations | Coastal observations for WA | Marine services | Other Formats
Station Details ID: 200284 Name: COCOS ISLAND AIRPORT Lat: -12.19 Lon: 96.83 Height: 3.0 m
Data from the previous 72 hours. | See also: Recent months at Cocos Island
Date/Time
WST
Temp

°C
Wind Pressure Rain
since 9am
mm
Weather Cloud Vis
km
Sea
Height
m
Swell
Dir
 
Speed
knots
Gust
knots
hPa Trend Height
m
Period
s
Dir
03/03:00am 25.9 E 12 14 1010.4 - 8.2 - - 10 - - - -
03/02:44am 25.7 E 12 14 1010.5 - 7.8 - Partly cloudy 10 - - - -
03/02:30am 25.8 E 9 12 1010.7 - 7.6 - Partly cloudy 5 - - - -
03/02:00am 25.0 ESE 14 20 1011.2 - 6.6 - Cloudy 5 - - - -
03/01:52am 24.9 ESE 15 20 1011.5 - 6.4 - Partly cloudy 6 - - - -
03/01:51am 24.9 ESE 15 20 1011.5 - 6.4 - Partly cloudy 8 - - - -
03/01:30am 25.6 E 17 24 1011.7 - 5.8 - Partly cloudy 6 - - - -
03/01:29am 25.6 E 17 24 1011.8 - 5.8 - Partly cloudy 6 - - - -
03/01:00am 26.6 E 13 18 1011.8 - 5.8 - Partly cloudy 10 - - - -
03/12:30am 26.2 E 13 17 1012.0 - 5.8 - Partly cloudy 10 - - - -
03/12:18am 26.3 E 14 17 1012.0 - 5.8 - Partly cloudy 10 - - - -
03/12:00am 26.3 E 11 17 1012.2 - 5.8 - Partly cloudy 5 - - - -
 
Date/Time
WST
Temp

°C
Wind Pressure Rain
since 9am
mm
Weather Cloud Vis
km
Sea
Height
m
Swell
Dir
 
Speed
knots
Gust
knots
hPa Trend Height
m
Period
s
Dir
02/11:59pm 26.2 E 11 17 1012.1 - 5.8 - Partly cloudy 5 - - - -
02/11:52pm 26.1 E 9 12 1012.1 - 5.8 - Partly cloudy 10 - - - -
02/11:31pm 25.9 ESE 8 11 1012.2 - 5.4 - Partly cloudy 6 - - - -
02/11:30pm 25.9 ESE 8 11 1012.2 - 5.2 - Partly cloudy 7 - - - -
02/11:19pm 25.7 SSE 8 11 1012.2 - 4.8 - Partly cloudy 9 - - - -
02/11:00pm 25.2 SE 13 17 1012.0 - 4.6 - Cloudy 5 - - - -
02/10:57pm 25.3 SE 13 17 1012.1 - 4.4 - Partly cloudy 6 - - - -
02/10:30pm 25.5 ESE 11 15 1011.9 - 4.4 - Partly cloudy 10 - - - -
02/10:00pm 25.5 E 14 19 1011.7 - 4.2 - Partly cloudy 10 - - - -
02/09:30pm 26.1 E 19 23 1011.5 - 4.2 - Partly cloudy 10 - - - -
02/09:00pm 26.3 E 16 23 1011.4 - 4.2 - Partly cloudy 10 - - - -
02/08:30pm 26.7 ESE 13 18 1010.8 - 4.2 - Partly cloudy 10 - - - -
02/08:00pm 26.6 ESE 11 15 1010.2 - 4.2 - - 10 - - - -
02/07:30pm 26.5 ESE 11 16 1010.0 - 4.2 - - 10 - - - -
02/07:00pm 26.6 ESE 9 13 1010.1 - 4.2 - Partly cloudy 10 - - - -
02/06:30pm 26.4 ESE 9 13 1009.7 - 4.2 - Partly cloudy 10 - - - -
02/06:00pm 26.6 ESE 11 14 1009.8 - 4.2 - - - - - - -
02/05:30pm 26.8 E 14 19 1009.7 - 4.2 - - - - - - -
02/05:00pm 26.7 ESE 9 15 1009.3 - 4.2 - - 10 - - - -
02/04:30pm 26.4 E 11 16 1009.4 - 4.2 Rain Mostly clear 10 - - - -
02/04:00pm 26.1 E 18 21 1009.3 - 4.2 Rain Mostly clear 10 - - - -
02/03:30pm 25.9 E 14 18 1009.9 - 3.6 Rain Mostly clear 10 - - - -
02/03:00pm 25.8 ENE 15 19 1010.1 - 2.4 Rain Mostly clear 8 - - - -
02/02:30pm 25.3 E 21 29 1010.4 - 1.6 Showers Mostly clear 8 - - - -
02/02:11pm 25.5 E 24 28 1010.8 - 1.4 Showers Mostly clear 8 - - - -
02/02:00pm 25.4 E 21 28 1011.0 - 1.4 - Cloudy 5 - - - -
02/01:59pm 25.2 E 21 31 1011.2 - 1.4 Showers Partly cloudy 7 - - - -
02/01:30pm 25.4 ENE 24 33 1011.5 - 0.8 Showers Partly cloudy 6 - - - -
02/01:20pm 25.7 ENE 25 32 1011.7 - 0.8 Showers Mostly clear 5 - - - -
02/01:16pm 25.7 ENE 25 32 1011.7 - 0.6 Thunderstorm Mostly clear 2 - - - -
02/01:07pm 26.4 E 19 33 1011.9 - 0.2 Thunderstorm Mostly clear 1 - - - -
02/01:06pm 27.3 E 17 26 1011.9 - 0.2 Showers Partly cloudy 1 - - - -
02/01:00pm 27.5 E 15 23 1011.8 - 0.2 Showers Partly cloudy 10 - - - -
02/12:30pm 28.0 E 17 23 1012.3 - 0.2 - Partly cloudy 10 - - - -
02/12:16pm 28.0 E 15 22 1012.4 - 0.2 - Mostly clear 10 - - - -
02/12:00pm 28.0 ESE 16 23 1012.5 - 0.2 - Partly cloudy 10 - - - -
02/11:30am 27.2 ESE 17 23 1012.5 - 0.0 - Mostly clear 10 - - - -
02/11:16am 26.9 ESE 20 27 1012.6 - 0.0 - Mostly clear 10 - - - -
02/11:00am 27.4 ESE 18 26 1012.4 - 18.0 - Partly cloudy 10 - - - -
02/10:30am 27.3 ESE 17 23 1012.6 - 18.0 - Mostly clear 10 - - - -
02/10:23am 27.5 ESE 16 22 1012.6 - 18.0 - Mostly clear 10 - - - -
02/10:00am 27.9 E 8 12 1012.4 - 18.0 Showers Partly cloudy 10 - - - -
02/09:30am 26.9 ESE 9 13 1012.1 - 18.0 - Partly cloudy 10 - - - -
02/09:00am 26.3 E 13 18 1011.9 - 18.0 Showers Mostly clear 10 - - - -
02/08:36am 26.8 E 15 25 1011.6 - 18.0 Showers Mostly clear 10 - - - -
02/08:30am 27.6 E 11 17 1011.5 - 18.0 Showers Partly cloudy 10 - - - -
02/08:00am 27.4 E 10 14 1011.0 - 18.0 - Cloudy 10 - - - -
02/07:30am 27.2 E 11 14 1010.7 - 18.0 - Partly cloudy 10 - - - -
02/07:00am 27.4 E 13 17 1010.3 - 18.0 - Partly cloudy 10 - - - -
02/06:30am 27.2 E 14 20 1009.8 - 18.0 - Partly cloudy 10 - - - -
02/06:00am 27.8 E 13 18 1009.4 - 18.0 - Partly cloudy 10 - - - -
02/05:30am 27.6 ESE 13 17 1009.4 - 18.0 - - 10 - - - -
02/05:00am 27.4 E 15 21 1009.4 - 18.0 - Cloudy 10 - - - -
02/04:30am 28.1 ESE 15 20 1009.4 - 18.0 - Partly cloudy 10 - - - -
02/04:00am 28.1 ESE 13 19 1009.8 - 18.0 - Partly cloudy 10 - - - -
02/03:30am 28.0 ESE 14 20 1009.9 - 18.0 - Partly cloudy 10 - - - -
02/03:00am 28.0 ESE 13 19 1010.3 - 18.0 - Partly cloudy 10 - - - -
02/02:30am 27.9 ESE 13 17 1010.7 - 18.0 - Partly cloudy 10 - - - -
02/02:00am 27.7 E 11 17 1011.2 - 18.0 - Cloudy 10 - - - -
02/01:30am 27.9 E 12 19 1011.6 - 18.0 - Partly cloudy 10 - - - -
02/01:00am 27.4 E 11 15 1011.8 - 18.0 - Partly cloudy 10 - - - -
02/12:30am 27.5 E 12 17 1011.8 - 18.0 - Partly cloudy 10 - - - -
02/12:00am 27.4 E 12 17 1011.9 - 18.0 - Cloudy 10 - - - -
 
Date/Time
WST
Temp

°C
Wind Pressure Rain
since 9am
mm
Weather Cloud Vis
km
Sea
Height
m
Swell
Dir
 
Speed
knots
Gust
knots
hPa Trend Height
m
Period
s
Dir
01/11:30pm 27.2 E 13 19 1012.0 - 18.0 - Partly cloudy 10 - - - -
01/11:11pm 27.0 E 11 16 1012.1 - 18.0 - - 10 - - - -
01/11:00pm 27.0 E 12 16 1011.9 - 18.0 - Mostly clear 4 - - - -
01/10:52pm 26.9 E 13 17 1011.9 - 18.0 - Partly cloudy 4 - - - -
01/10:30pm 26.6 E 15 22 1012.1 - 18.0 - Partly cloudy 10 - - - -
01/10:00pm 27.1 ESE 13 21 1011.9 - 18.0 - Partly cloudy 10 - - - -
01/09:32pm 26.2 E 13 17 1011.7 - 18.0 - Partly cloudy 10 - - - -
01/09:30pm 26.3 E 14 17 1011.7 - 18.0 - Partly cloudy 10 - - - -
01/09:11pm 26.2 ESE 15 20 1011.7 - 17.4 - Partly cloudy 6 - - - -
01/09:00pm 26.7 ESE 15 20 1011.6 - 17.0 - Partly cloudy 10 - - - -
01/08:30pm 26.2 ESE 15 21 1011.4 - 17.0 - Partly cloudy 10 - - - -
01/08:14pm 26.1 ESE 13 17 1011.2 - 17.0 - Partly cloudy 9 - - - -
01/08:05pm 25.9 ESE 15 22 1011.2 - 17.0 - Partly cloudy 7 - - - -
01/08:00pm 25.8 ESE 14 20 1011.1 - 17.0 - Cloudy 4 - - - -
01/07:48pm 26.3 E 11 15 1011.0 - 15.6 - Partly cloudy 5 - - - -
01/07:46pm 26.3 ESE 11 15 1011.0 - 15.4 - Partly cloudy 6 - - - -
01/07:30pm 26.3 ESE 12 16 1010.8 - 15.0 - Partly cloudy 8 - - - -
01/07:00pm 26.0 ESE 13 20 1010.5 - 14.2 - Partly cloudy 9 - - - -
01/06:52pm 25.9 ESE 17 22 1010.5 - 14.0 - Partly cloudy 8 - - - -
01/06:30pm 25.9 ESE 17 25 1010.2 - 13.4 - Partly cloudy 5 - - - -
01/06:19pm 25.7 ESE 18 26 1010.3 - 12.8 - Partly cloudy 5 - - - -
01/06:00pm 26.1 E 17 22 1010.1 - 11.4 - Partly cloudy 1 - - - -
01/05:59pm 26.1 E 17 22 1010.1 - 11.4 - Partly cloudy 1 - - - -
01/05:52pm 26.2 ENE 21 27 1009.8 - 7.0 - Partly cloudy 5 - - - -
01/05:46pm 26.0 ESE 16 22 1009.9 - 6.4 - Partly cloudy 4 - - - -
01/05:41pm 26.1 ESE 16 20 1009.9 - 6.2 - Partly cloudy 6 - - - -
01/05:30pm 27.8 ESE 11 15 1009.6 - 6.2 - Partly cloudy 10 - - - -
01/05:19pm 27.2 E 11 14 1009.8 - 6.2 - Partly cloudy 10 - - - -
01/05:00pm 26.2 ENE 10 14 1009.6 - 6.0 - Cloudy 3 - - - -
01/04:30pm 25.4 ENE 21 26 1010.1 - 2.0 - Partly cloudy 2 - - - -
01/04:28pm 26.0 ENE 20 26 1010.3 - 1.4 - Partly cloudy 5 - - - -
01/04:22pm 27.1 ENE 21 26 1010.3 - 0.6 - Partly cloudy 10 - - - -
01/04:00pm 28.5 ESE 15 22 1010.0 - 0.6 - Partly cloudy 10 - - - -
01/03:30pm 28.3 ESE 17 23 1009.8 - 0.6 - Partly cloudy 10 - - - -
01/03:16pm 28.3 ESE 15 25 1009.9 - 0.6 - Partly cloudy 10 - - - -
01/03:03pm 28.5 ESE 15 21 1010.0 - 0.6 - Partly cloudy 10 - - - -
01/03:00pm 28.4 ESE 15 21 1010.1 - 0.6 - Partly cloudy 10 - - - -
01/02:42pm 28.5 ESE 15 20 1010.3 - 0.6 - Partly cloudy 3 - - - -
01/02:30pm 28.3 ESE 15 21 1010.4 - 0.6 - Partly cloudy 10 - - - -
01/02:00pm 28.6 ESE 18 24 1010.6 - 0.6 - Cloudy 10 - - - -
01/01:55pm 28.6 ESE 17 23 1010.8 - 0.6 - Partly cloudy 10 - - - -
01/01:30pm 28.4 ESE 16 22 1011.0 - 0.6 - Partly cloudy 10 - - - -
01/01:00pm 28.5 ESE 15 22 1011.4 - 0.4 - Partly cloudy 10 - - - -
01/12:49pm 28.0 ESE 16 23 1011.5 - 0.4 - Partly cloudy 10 - - - -
01/12:30pm 28.2 ESE 15 22 1011.5 - 0.4 - Partly cloudy 10 - - - -
01/12:07pm 27.7 ESE 14 22 1011.8 - 0.4 - Partly cloudy 10 - - - -
01/12:00pm 27.6 ESE 14 22 1012.0 - 0.4 - Partly cloudy 10 - - - -
01/11:47am 26.7 ESE 16 23 1012.3 - 0.0 - Partly cloudy 6 - - - -
01/11:30am 27.7 ESE 16 22 1012.4 - 0.0 - Partly cloudy 10 - - - -
01/11:00am 28.4 E 16 21 1012.2 - 12.6 - Cloudy 10 - - - -
01/10:30am 28.4 ESE 14 20 1012.1 - 12.6 - Partly cloudy 10 - - - -
01/10:00am 28.0 E 15 21 1012.0 - 12.6 - Partly cloudy 10 - - - -
01/09:30am 27.3 ESE 15 21 1011.8 - 12.6 - Partly cloudy 10 - - - -
01/09:00am 27.4 ESE 16 21 1011.6 - 12.4 - Partly cloudy 10 - - - -
01/08:30am 27.2 ESE 14 19 1011.3 - 12.4 - Partly cloudy 10 - - - -
01/08:00am 27.2 E 13 18 1010.9 - 12.4 - Mostly clear 10 - - - -
01/07:30am 26.9 E 14 17 1010.7 - 12.4 - Partly cloudy 10 - - - -
01/07:00am 27.0 E 15 21 1010.1 - 12.4 - Partly cloudy 10 - - - -
01/06:30am 26.6 E 14 19 1009.9 - 12.4 - Partly cloudy 10 - - - -
01/06:00am 26.9 ESE 15 22 1009.7 - 12.4 - Partly cloudy 10 - - - -
01/05:30am 26.8 ESE 13 18 1009.9 - 12.4 - Partly cloudy 10 - - - -
01/05:00am 26.7 E 15 21 1009.7 - 12.4 - Mostly cloudy 10 - - - -
01/04:42am 26.4 E 15 25 1010.0 - 12.4 - Partly cloudy 10 - - - -
01/04:36am 26.2 ENE 13 17 1010.0 - 12.4 - Partly cloudy 10 - - - -
01/04:30am 26.1 ENE 15 19 1009.9 - 12.4 - Partly cloudy 8 - - - -
01/04:11am 25.6 ENE 22 32 1010.0 - 12.0 - Partly cloudy 0.8 - - - -
01/04:02am 26.1 ENE 26 32 1010.0 - 7.4 - Partly cloudy 5 - - - -
01/04:00am 26.4 ENE 25 31 1010.0 - 6.2 - Partly cloudy 10 - - - -
01/03:57am 26.9 E 15 29 1010.1 - 6.2 - Partly cloudy 10 - - - -
01/03:30am 27.4 E 12 16 1010.1 - 6.2 - Partly cloudy 10 - - - -
01/03:24am 27.3 E 12 16 1010.2 - 6.2 - Partly cloudy 10 - - - -
01/03:00am 26.7 E 12 21 1010.4 - 3.4 - Partly cloudy 5 - - - -
01/02:55am 26.8 E 12 18 1010.4 - 3.2 - Partly cloudy 6 - - - -
01/02:50am 27.0 E 11 15 1010.4 - 3.0 - Partly cloudy 10 - - - -
01/02:30am 26.7 E 13 23 1010.8 - 2.6 - Partly cloudy 2 - - - -
01/02:26am 27.1 E 11 23 1010.9 - 1.8 - Partly cloudy 4 - - - -
01/02:00am 27.4 E 9 13 1010.9 - 0.2 - Partly cloudy 10 - - - -
01/01:48am 27.6 E 11 14 1011.1 - 0.2 - Partly cloudy 10 - - - -
01/01:30am 27.5 ESE 12 16 1011.2 - 0.2 - Partly cloudy 2 - - - -
01/01:24am 27.4 SE 12 16 1011.2 - 0.2 - Partly cloudy 6 - - - -
01/01:00am 27.3 E 10 14 1011.4 - 0.2 - Partly cloudy 10 - - - -
01/12:30am 27.4 E 12 16 1011.6 - 0.2 - Partly cloudy 10 - - - -
01/12:00am 27.4 E 11 16 1011.8 - 0.2 - Partly cloudy 10 - - - -
 
Date/Time
WST
Temp

°C
Wind Pressure Rain
since 9am
mm
Weather Cloud Vis
km
Sea
Height
m
Swell
Dir
 
Speed
knots
Gust
knots
hPa Trend Height
m
Period
s
Dir
30/11:30pm 27.5 E 9 11 1011.9 - 0.2 - - 10 - - - -
30/11:00pm 27.3 E 9 14 1011.8 - 0.2 - - 10 - - - -
30/10:30pm 27.4 E 11 14 1011.9 - 0.2 - - 10 - - - -
30/10:00pm 27.3 E 11 16 1011.9 - 0.2 - Partly cloudy 10 - - - -
30/09:30pm 27.2 E 12 19 1011.6 - 0.2 - - 10 - - - -
30/09:00pm 27.3 E 14 18 1011.1 - 0.2 - Partly cloudy 10 - - - -
30/08:30pm 27.5 E 17 21 1010.7 - 0.2 - Partly cloudy 10 - - - -
30/08:00pm 27.6 E 20 25 1010.3 - 0.2 - Partly cloudy 10 - - - -
30/07:30pm 27.6 E 22 26 1010.4 - 0.2 - Partly cloudy 10 - - - -
30/07:00pm 27.7 ENE 21 26 1010.1 - 0.2 - Partly cloudy 10 - - - -
30/06:30pm 27.5 E 26 31 1009.9 - 0.2 - Partly cloudy 10 - - - -
30/06:04pm 28.5 E 18 28 1009.8 - 0.2 - Partly cloudy 10 - - - -
30/06:00pm 28.4 E 19 24 1009.7 - 0.2 - Partly cloudy 10 - - - -
30/05:30pm 28.6 E 21 25 1009.6 - 0.2 - Partly cloudy 10 - - - -
30/05:29pm 28.5 E 21 25 1009.6 - 0.2 - Partly cloudy 10 - - - -
30/05:12pm 28.5 E 16 22 1009.5 - 0.2 - Partly cloudy 6 - - - -
30/05:00pm 28.4 E 17 22 1009.3 - 0.2 - Partly cloudy 10 - - - -
30/04:30pm 28.3 E 18 24 1009.4 - 0.2 - Partly cloudy 10 - - - -
30/04:12pm 28.7 E 20 24 1009.4 - 0.2 - Partly cloudy 10 - - - -
30/04:00pm 28.2 E 20 24 1009.4 - 0.2 - Partly cloudy 10 - - - -
30/03:55pm 28.9 E 21 25 1009.4 - 0.2 - Partly cloudy 10 - - - -
30/03:40pm 28.4 E 17 23 1009.4 - 0.2 - Partly cloudy 10 - - - -
30/03:30pm 28.2 E 17 22 1009.4 - 0.2 - Partly cloudy 10 - - - -
30/03:00pm 28.1 E 16 23 1010.0 - 0.2 - Partly cloudy 10 - - - -
30/02:30pm 28.1 E 17 23 1010.3 - 0.2 - Partly cloudy 10 - - - -
30/02:00pm 28.3 E 16 22 1010.6 - 0.2 - Partly cloudy 10 - - - -
30/01:44pm 28.2 E 15 20 1010.6 - 0.2 - Partly cloudy 10 - - - -
30/01:30pm 28.2 E 15 21 1010.9 - 0.2 - Partly cloudy 10 - - - -
30/01:22pm 28.2 E 14 19 1011.0 - 0.2 - Partly cloudy 10 - - - -
30/01:00pm 28.4 E 13 18 1011.3 - 0.2 - Partly cloudy 10 - - - -
30/12:30pm 27.3 ESE 15 21 1011.8 - 0.2 - Partly cloudy 10 - - - -
30/12:00pm 28.5 ESE 13 18 1012.4 - 0.0 - Partly cloudy 10 - - - -
30/11:30am 27.8 ESE 13 18 1012.5 - 0.0 - Partly cloudy 10 - - - -
30/11:00am 27.4 ESE 15 21 1012.6 - 11.8 - Mostly clear 10 - - - -
30/10:37am 27.5 ESE 14 19 1012.7 - 11.8 - Partly cloudy 10 - - - -
30/10:30am 27.3 ESE 13 19 1012.7 - 11.8 - Partly cloudy 10 - - - -
30/10:00am 26.8 ESE 14 19 1012.5 - 11.8 - Partly cloudy 10 - - - -
30/09:59am 26.8 ESE 14 19 1012.5 - 11.8 - Partly cloudy 10 - - - -
30/09:38am 26.6 ESE 15 20 1012.3 - 11.6 - Partly cloudy 8 - - - -
30/09:34am 26.5 ESE 15 20 1012.3 - 11.4 - Partly cloudy 8 - - - -
30/09:30am 26.4 ESE 17 23 1012.3 - 11.4 - Partly cloudy 7 - - - -
30/09:22am 26.4 ESE 15 23 1012.3 - 11.2 - Partly cloudy 6 - - - -
30/09:21am 26.4 ESE 14 21 1012.3 - 11.2 - Partly cloudy 7 - - - -
30/09:17am 26.5 ESE 14 20 1012.3 - 10.8 - Partly cloudy 8 - - - -
30/09:00am 26.2 E 11 17 1012.2 - 10.4 - Partly cloudy 4 - - - -
30/08:45am 26.0 E 17 24 1012.1 - 9.4 - Partly cloudy 6 - - - -
30/08:30am 25.9 E 18 23 1011.9 - 9.4 - Partly cloudy 10 - - - -
30/08:27am 25.9 E 17 21 1011.9 - 9.4 - Partly cloudy 10 - - - -
30/08:15am 26.3 E 15 19 1011.7 - 9.4 - Partly cloudy 10 - - - -
30/08:00am 27.0 SE 16 20 1011.5 - 9.4 - Cloudy 10 - - - -
30/07:44am 26.9 SE 12 14 1011.4 - 9.4 - Partly cloudy 10 - - - -
30/07:30am 26.7 SE 9 13 1011.3 - 9.4 - Partly cloudy 5 - - - -
30/07:25am 26.7 SE 9 13 1011.4 - 9.4 - Partly cloudy 5 - - - -
30/07:00am 26.7 SE 10 13 1011.1 - 9.4 - - 10 - - - -
30/06:41am 26.2 SE 9 12 1011.1 - 9.4 - Partly cloudy 10 - - - -
30/06:30am 25.9 SE 10 13 1011.0 - 9.4 - Partly cloudy 5 - - - -
30/06:16am 26.2 ESE 13 19 1010.9 - 8.4 - Partly cloudy 6 - - - -
30/06:00am 26.8 E 13 19 1010.5 - 8.2 - Partly cloudy 10 - - - -
30/05:30am 27.5 E 9 15 1010.3 - 8.2 - Partly cloudy 10 - - - -
30/05:00am 27.2 E 6 9 1010.2 - 8.2 - Partly cloudy 10 - - - -

Other Formats:

Comma delimited format used in spreadsheet applications
http://www.bom.gov.au/fwo/IDW60701/IDW60701.96996.axf

JavaScript Object Notation format (JSON) in row-major order
http://www.bom.gov.au/fwo/IDW60701/IDW60701.96996.json